sensor_id;sensor_type;location;lat;lon;timestamp;pressure;altitude;pressure_sealevel;temperature
20736;BMP180;10528;52.124;5.196;2024-01-27T00:00:26;103283.00;;;11.30
20736;BMP180;10528;52.124;5.196;2024-01-27T00:02:53;103289.00;;;11.30
20736;BMP180;10528;52.124;5.196;2024-01-27T00:05:20;103288.00;;;11.30
20736;BMP180;10528;52.124;5.196;2024-01-27T00:07:47;103272.00;;;11.30
20736;BMP180;10528;52.124;5.196;2024-01-27T00:10:14;103286.00;;;11.30
20736;BMP180;10528;52.124;5.196;2024-01-27T00:12:41;103292.00;;;11.20
20736;BMP180;10528;52.124;5.196;2024-01-27T00:15:08;103290.00;;;11.20
20736;BMP180;10528;52.124;5.196;2024-01-27T00:17:36;103294.00;;;11.20
20736;BMP180;10528;52.124;5.196;2024-01-27T00:20:03;103299.00;;;11.20
20736;BMP180;10528;52.124;5.196;2024-01-27T00:22:30;103303.00;;;11.20
20736;BMP180;10528;52.124;5.196;2024-01-27T00:24:57;103309.00;;;11.20
20736;BMP180;10528;52.124;5.196;2024-01-27T00:27:24;103301.00;;;11.20
20736;BMP180;10528;52.124;5.196;2024-01-27T00:29:51;103297.00;;;11.20
20736;BMP180;10528;52.124;5.196;2024-01-27T00:32:18;103299.00;;;11.10
20736;BMP180;10528;52.124;5.196;2024-01-27T00:34:45;103289.00;;;11.10
20736;BMP180;10528;52.124;5.196;2024-01-27T00:37:12;103286.00;;;11.10
20736;BMP180;10528;52.124;5.196;2024-01-27T00:39:39;103298.00;;;11.10
20736;BMP180;10528;52.124;5.196;2024-01-27T00:42:07;103300.00;;;11.10
20736;BMP180;10528;52.124;5.196;2024-01-27T00:44:34;103293.00;;;11.00
20736;BMP180;10528;52.124;5.196;2024-01-27T00:47:02;103280.00;;;11.00
20736;BMP180;10528;52.124;5.196;2024-01-27T00:49:30;103300.00;;;11.00
20736;BMP180;10528;52.124;5.196;2024-01-27T00:51:57;103294.00;;;11.00
20736;BMP180;10528;52.124;5.196;2024-01-27T00:54:24;103275.00;;;11.00
20736;BMP180;10528;52.124;5.196;2024-01-27T00:56:52;103292.00;;;11.00
20736;BMP180;10528;52.124;5.196;2024-01-27T00:59:19;103291.00;;;10.90
20736;BMP180;10528;52.124;5.196;2024-01-27T01:01:46;103297.00;;;10.90
20736;BMP180;10528;52.124;5.196;2024-01-27T01:04:14;103300.00;;;10.90
20736;BMP180;10528;52.124;5.196;2024-01-27T01:06:41;103300.00;;;10.90
20736;BMP180;10528;52.124;5.196;2024-01-27T01:09:08;103294.00;;;10.90
20736;BMP180;10528;52.124;5.196;2024-01-27T01:11:35;103299.00;;;10.90
20736;BMP180;10528;52.124;5.196;2024-01-27T01:14:06;103294.00;;;10.90
20736;BMP180;10528;52.124;5.196;2024-01-27T01:16:33;103297.00;;;10.90
20736;BMP180;10528;52.124;5.196;2024-01-27T01:18:59;103298.00;;;10.90
20736;BMP180;10528;52.124;5.196;2024-01-27T01:21:26;103309.00;;;10.90
20736;BMP180;10528;52.124;5.196;2024-01-27T01:23:55;103305.00;;;10.80
20736;BMP180;10528;52.124;5.196;2024-01-27T01:26:22;103310.00;;;10.80
20736;BMP180;10528;52.124;5.196;2024-01-27T01:28:49;103309.00;;;10.80
20736;BMP180;10528;52.124;5.196;2024-01-27T01:31:16;103301.00;;;10.80
20736;BMP180;10528;52.124;5.196;2024-01-27T01:33:44;103304.00;;;10.80
20736;BMP180;10528;52.124;5.196;2024-01-27T01:36:11;103311.00;;;10.80
20736;BMP180;10528;52.124;5.196;2024-01-27T01:38:38;103303.00;;;10.80
20736;BMP180;10528;52.124;5.196;2024-01-27T01:41:05;103297.00;;;10.80
20736;BMP180;10528;52.124;5.196;2024-01-27T01:43:32;103294.00;;;10.80
20736;BMP180;10528;52.124;5.196;2024-01-27T01:45:59;103299.00;;;10.70
20736;BMP180;10528;52.124;5.196;2024-01-27T01:48:26;103315.00;;;10.70
20736;BMP180;10528;52.124;5.196;2024-01-27T01:50:53;103304.00;;;10.70
20736;BMP180;10528;52.124;5.196;2024-01-27T01:53:22;103296.00;;;10.70
20736;BMP180;10528;52.124;5.196;2024-01-27T01:55:50;103302.00;;;10.60
20736;BMP180;10528;52.124;5.196;2024-01-27T01:58:17;103315.00;;;10.60
20736;BMP180;10528;52.124;5.196;2024-01-27T02:00:45;103310.00;;;10.60
20736;BMP180;10528;52.124;5.196;2024-01-27T02:03:13;103317.00;;;10.60
20736;BMP180;10528;52.124;5.196;2024-01-27T02:05:40;103308.00;;;10.60
20736;BMP180;10528;52.124;5.196;2024-01-27T02:08:07;103316.00;;;10.60
20736;BMP180;10528;52.124;5.196;2024-01-27T02:10:35;103303.00;;;10.60
20736;BMP180;10528;52.124;5.196;2024-01-27T02:13:16;103312.00;;;10.50
20736;BMP180;10528;52.124;5.196;2024-01-27T02:15:48;103317.00;;;10.50
20736;BMP180;10528;52.124;5.196;2024-01-27T02:18:16;103313.00;;;10.50
20736;BMP180;10528;52.124;5.196;2024-01-27T02:20:43;103318.00;;;10.50
20736;BMP180;10528;52.124;5.196;2024-01-27T02:23:10;103315.00;;;10.50
20736;BMP180;10528;52.124;5.196;2024-01-27T02:25:37;103315.00;;;10.50
20736;BMP180;10528;52.124;5.196;2024-01-27T02:28:05;103312.00;;;10.50
20736;BMP180;10528;52.124;5.196;2024-01-27T02:30:32;103305.00;;;10.50
20736;BMP180;10528;52.124;5.196;2024-01-27T02:32:59;103313.00;;;10.50
20736;BMP180;10528;52.124;5.196;2024-01-27T02:35:26;103312.00;;;10.50
20736;BMP180;10528;52.124;5.196;2024-01-27T02:37:53;103310.00;;;10.50
20736;BMP180;10528;52.124;5.196;2024-01-27T02:40:20;103310.00;;;10.40
20736;BMP180;10528;52.124;5.196;2024-01-27T02:42:47;103316.00;;;10.40
20736;BMP180;10528;52.124;5.196;2024-01-27T02:45:14;103316.00;;;10.40
20736;BMP180;10528;52.124;5.196;2024-01-27T02:47:41;103330.00;;;10.40
20736;BMP180;10528;52.124;5.196;2024-01-27T02:50:08;103327.00;;;10.40
20736;BMP180;10528;52.124;5.196;2024-01-27T02:52:35;103311.00;;;10.30
20736;BMP180;10528;52.124;5.196;2024-01-27T02:55:03;103330.00;;;10.40
20736;BMP180;10528;52.124;5.196;2024-01-27T02:57:30;103319.00;;;10.30
20736;BMP180;10528;52.124;5.196;2024-01-27T02:59:57;103315.00;;;10.30
20736;BMP180;10528;52.124;5.196;2024-01-27T03:02:24;103314.00;;;10.30
20736;BMP180;10528;52.124;5.196;2024-01-27T03:04:51;103313.00;;;10.30
20736;BMP180;10528;52.124;5.196;2024-01-27T03:07:18;103321.00;;;10.30
20736;BMP180;10528;52.124;5.196;2024-01-27T03:09:45;103324.00;;;10.30
20736;BMP180;10528;52.124;5.196;2024-01-27T03:12:12;103327.00;;;10.20
20736;BMP180;10528;52.124;5.196;2024-01-27T03:14:39;103327.00;;;10.20
20736;BMP180;10528;52.124;5.196;2024-01-27T03:17:06;103325.00;;;10.20
20736;BMP180;10528;52.124;5.196;2024-01-27T03:19:33;103323.00;;;10.20
20736;BMP180;10528;52.124;5.196;2024-01-27T03:22:01;103318.00;;;10.20
20736;BMP180;10528;52.124;5.196;2024-01-27T03:24:28;103310.00;;;10.10
20736;BMP180;10528;52.124;5.196;2024-01-27T03:26:55;103325.00;;;10.10
20736;BMP180;10528;52.124;5.196;2024-01-27T03:29:22;103322.00;;;10.10
20736;BMP180;10528;52.124;5.196;2024-01-27T03:31:49;103320.00;;;10.10
20736;BMP180;10528;52.124;5.196;2024-01-27T03:34:16;103319.00;;;10.10
20736;BMP180;10528;52.124;5.196;2024-01-27T03:36:48;103324.00;;;10.00
20736;BMP180;10528;52.124;5.196;2024-01-27T03:39:15;103327.00;;;10.00
20736;BMP180;10528;52.124;5.196;2024-01-27T03:41:42;103327.00;;;10.00
20736;BMP180;10528;52.124;5.196;2024-01-27T03:44:09;103313.00;;;9.90
20736;BMP180;10528;52.124;5.196;2024-01-27T03:46:36;103328.00;;;9.90
20736;BMP180;10528;52.124;5.196;2024-01-27T03:49:06;103333.00;;;9.90
20736;BMP180;10528;52.124;5.196;2024-01-27T03:51:33;103338.00;;;9.90
20736;BMP180;10528;52.124;5.196;2024-01-27T03:54:00;103332.00;;;9.80
20736;BMP180;10528;52.124;5.196;2024-01-27T03:56:27;103320.00;;;9.80
20736;BMP180;10528;52.124;5.196;2024-01-27T03:58:53;103328.00;;;9.80
20736;BMP180;10528;52.124;5.196;2024-01-27T04:01:21;103324.00;;;9.80
20736;BMP180;10528;52.124;5.196;2024-01-27T04:03:48;103323.00;;;9.70
20736;BMP180;10528;52.124;5.196;2024-01-27T04:06:15;103331.00;;;9.70
20736;BMP180;10528;52.124;5.196;2024-01-27T04:08:42;103332.00;;;9.70
20736;BMP180;10528;52.124;5.196;2024-01-27T04:11:23;103321.00;;;9.70
20736;BMP180;10528;52.124;5.196;2024-01-27T04:13:50;103330.00;;;9.70
20736;BMP180;10528;52.124;5.196;2024-01-27T04:16:17;103330.00;;;9.70
20736;BMP180;10528;52.124;5.196;2024-01-27T04:18:46;103340.00;;;9.70
20736;BMP180;10528;52.124;5.196;2024-01-27T04:21:13;103340.00;;;9.70
20736;BMP180;10528;52.124;5.196;2024-01-27T04:23:40;103343.00;;;9.70
20736;BMP180;10528;52.124;5.196;2024-01-27T04:26:07;103327.00;;;9.70
20736;BMP180;10528;52.124;5.196;2024-01-27T04:28:36;103327.00;;;9.70
20736;BMP180;10528;52.124;5.196;2024-01-27T04:31:03;103326.00;;;9.70
20736;BMP180;10528;52.124;5.196;2024-01-27T04:33:30;103316.00;;;9.70
20736;BMP180;10528;52.124;5.196;2024-01-27T04:35:58;103332.00;;;9.70
20736;BMP180;10528;52.124;5.196;2024-01-27T04:38:25;103333.00;;;9.70
20736;BMP180;10528;52.124;5.196;2024-01-27T04:40:52;103346.00;;;9.70
20736;BMP180;10528;52.124;5.196;2024-01-27T04:43:19;103345.00;;;9.70
20736;BMP180;10528;52.124;5.196;2024-01-27T04:45:49;103358.00;;;9.60
20736;BMP180;10528;52.124;5.196;2024-01-27T04:48:16;103359.00;;;9.60
20736;BMP180;10528;52.124;5.196;2024-01-27T04:50:43;103353.00;;;9.60
20736;BMP180;10528;52.124;5.196;2024-01-27T04:53:10;103357.00;;;9.60
20736;BMP180;10528;52.124;5.196;2024-01-27T04:55:37;103352.00;;;9.50
20736;BMP180;10528;52.124;5.196;2024-01-27T04:58:07;103341.00;;;9.50
20736;BMP180;10528;52.124;5.196;2024-01-27T05:00:34;103343.00;;;9.50
20736;BMP180;10528;52.124;5.196;2024-01-27T05:03:01;103341.00;;;9.40
20736;BMP180;10528;52.124;5.196;2024-01-27T05:05:32;103337.00;;;9.40
20736;BMP180;10528;52.124;5.196;2024-01-27T05:08:03;103330.00;;;9.40
20736;BMP180;10528;52.124;5.196;2024-01-27T05:10:30;103341.00;;;9.40
20736;BMP180;10528;52.124;5.196;2024-01-27T05:12:57;103345.00;;;9.30
20736;BMP180;10528;52.124;5.196;2024-01-27T05:15:24;103337.00;;;9.30
20736;BMP180;10528;52.124;5.196;2024-01-27T05:17:52;103340.00;;;9.30
20736;BMP180;10528;52.124;5.196;2024-01-27T05:20:19;103333.00;;;9.30
20736;BMP180;10528;52.124;5.196;2024-01-27T05:22:46;103336.00;;;9.30
20736;BMP180;10528;52.124;5.196;2024-01-27T05:25:13;103329.00;;;9.30
20736;BMP180;10528;52.124;5.196;2024-01-27T05:27:40;103330.00;;;9.20
20736;BMP180;10528;52.124;5.196;2024-01-27T05:30:08;103329.00;;;9.20
20736;BMP180;10528;52.124;5.196;2024-01-27T05:32:36;103326.00;;;9.20
20736;BMP180;10528;52.124;5.196;2024-01-27T05:35:03;103319.00;;;9.20
20736;BMP180;10528;52.124;5.196;2024-01-27T05:37:31;103330.00;;;9.20
20736;BMP180;10528;52.124;5.196;2024-01-27T05:39:58;103318.00;;;9.20
20736;BMP180;10528;52.124;5.196;2024-01-27T05:42:25;103320.00;;;9.20
20736;BMP180;10528;52.124;5.196;2024-01-27T05:44:52;103320.00;;;9.20
20736;BMP180;10528;52.124;5.196;2024-01-27T05:47:19;103313.00;;;9.20
20736;BMP180;10528;52.124;5.196;2024-01-27T05:49:46;103317.00;;;9.20
20736;BMP180;10528;52.124;5.196;2024-01-27T05:52:13;103308.00;;;9.20
20736;BMP180;10528;52.124;5.196;2024-01-27T05:54:52;103313.00;;;9.20
20736;BMP180;10528;52.124;5.196;2024-01-27T05:57:19;103322.00;;;9.20
20736;BMP180;10528;52.124;5.196;2024-01-27T05:59:47;103315.00;;;9.20
20736;BMP180;10528;52.124;5.196;2024-01-27T06:02:14;103325.00;;;9.20
20736;BMP180;10528;52.124;5.196;2024-01-27T06:04:41;103329.00;;;9.20
20736;BMP180;10528;52.124;5.196;2024-01-27T06:07:08;103328.00;;;9.20
20736;BMP180;10528;52.124;5.196;2024-01-27T06:09:37;103320.00;;;9.20
20736;BMP180;10528;52.124;5.196;2024-01-27T06:12:05;103336.00;;;9.10
20736;BMP180;10528;52.124;5.196;2024-01-27T06:14:32;103344.00;;;9.10
20736;BMP180;10528;52.124;5.196;2024-01-27T06:17:02;103325.00;;;9.10
20736;BMP180;10528;52.124;5.196;2024-01-27T06:19:29;103319.00;;;9.10
20736;BMP180;10528;52.124;5.196;2024-01-27T06:21:57;103325.00;;;9.10
20736;BMP180;10528;52.124;5.196;2024-01-27T06:24:23;103327.00;;;9.10
20736;BMP180;10528;52.124;5.196;2024-01-27T06:26:51;103315.00;;;9.10
20736;BMP180;10528;52.124;5.196;2024-01-27T06:29:17;103322.00;;;9.10
20736;BMP180;10528;52.124;5.196;2024-01-27T06:31:45;103326.00;;;9.10
20736;BMP180;10528;52.124;5.196;2024-01-27T06:34:12;103317.00;;;9.10
20736;BMP180;10528;52.124;5.196;2024-01-27T06:36:39;103317.00;;;9.10
20736;BMP180;10528;52.124;5.196;2024-01-27T06:39:06;103318.00;;;9.00
20736;BMP180;10528;52.124;5.196;2024-01-27T06:41:34;103316.00;;;9.00
20736;BMP180;10528;52.124;5.196;2024-01-27T06:44:01;103304.00;;;9.00
20736;BMP180;10528;52.124;5.196;2024-01-27T06:46:28;103317.00;;;9.00
20736;BMP180;10528;52.124;5.196;2024-01-27T06:48:55;103315.00;;;8.90
20736;BMP180;10528;52.124;5.196;2024-01-27T06:51:22;103316.00;;;8.90
20736;BMP180;10528;52.124;5.196;2024-01-27T06:53:49;103313.00;;;8.90
20736;BMP180;10528;52.124;5.196;2024-01-27T06:56:16;103317.00;;;8.90
20736;BMP180;10528;52.124;5.196;2024-01-27T06:58:43;103327.00;;;8.80
20736;BMP180;10528;52.124;5.196;2024-01-27T07:01:10;103324.00;;;8.80
20736;BMP180;10528;52.124;5.196;2024-01-27T07:03:37;103335.00;;;8.80
20736;BMP180;10528;52.124;5.196;2024-01-27T07:06:06;103331.00;;;8.80
20736;BMP180;10528;52.124;5.196;2024-01-27T07:08:33;103339.00;;;8.70
20736;BMP180;10528;52.124;5.196;2024-01-27T07:11:04;103344.00;;;8.70
20736;BMP180;10528;52.124;5.196;2024-01-27T07:13:31;103339.00;;;8.70
20736;BMP180;10528;52.124;5.196;2024-01-27T07:15:58;103347.00;;;8.70
20736;BMP180;10528;52.124;5.196;2024-01-27T07:18:25;103341.00;;;8.70
20736;BMP180;10528;52.124;5.196;2024-01-27T07:20:53;103353.00;;;8.70
20736;BMP180;10528;52.124;5.196;2024-01-27T07:23:21;103345.00;;;8.60
20736;BMP180;10528;52.124;5.196;2024-01-27T07:25:48;103345.00;;;8.70
20736;BMP180;10528;52.124;5.196;2024-01-27T07:28:15;103357.00;;;8.70
20736;BMP180;10528;52.124;5.196;2024-01-27T07:30:45;103364.00;;;8.70
20736;BMP180;10528;52.124;5.196;2024-01-27T07:33:12;103357.00;;;8.70
20736;BMP180;10528;52.124;5.196;2024-01-27T07:35:40;103368.00;;;8.70
20736;BMP180;10528;52.124;5.196;2024-01-27T07:38:07;103371.00;;;8.70
20736;BMP180;10528;52.124;5.196;2024-01-27T07:40:35;103373.00;;;8.70
20736;BMP180;10528;52.124;5.196;2024-01-27T07:43:02;103365.00;;;8.80
20736;BMP180;10528;52.124;5.196;2024-01-27T07:45:30;103361.00;;;8.80
20736;BMP180;10528;52.124;5.196;2024-01-27T07:47:57;103364.00;;;8.80
20736;BMP180;10528;52.124;5.196;2024-01-27T07:50:27;103367.00;;;8.80
20736;BMP180;10528;52.124;5.196;2024-01-27T07:52:54;103365.00;;;8.80
20736;BMP180;10528;52.124;5.196;2024-01-27T07:55:21;103367.00;;;8.80
20736;BMP180;10528;52.124;5.196;2024-01-27T07:57:48;103365.00;;;8.90
20736;BMP180;10528;52.124;5.196;2024-01-27T08:00:15;103366.00;;;8.90
20736;BMP180;10528;52.124;5.196;2024-01-27T08:02:43;103373.00;;;8.90
20736;BMP180;10528;52.124;5.196;2024-01-27T08:05:10;103378.00;;;8.90
20736;BMP180;10528;52.124;5.196;2024-01-27T08:07:37;103372.00;;;9.00
20736;BMP180;10528;52.124;5.196;2024-01-27T08:10:05;103370.00;;;9.00
20736;BMP180;10528;52.124;5.196;2024-01-27T08:12:32;103372.00;;;9.00
20736;BMP180;10528;52.124;5.196;2024-01-27T08:14:59;103370.00;;;9.10
20736;BMP180;10528;52.124;5.196;2024-01-27T08:17:26;103365.00;;;9.10
20736;BMP180;10528;52.124;5.196;2024-01-27T08:19:53;103375.00;;;9.20
20736;BMP180;10528;52.124;5.196;2024-01-27T08:22:20;103380.00;;;9.20
20736;BMP180;10528;52.124;5.196;2024-01-27T08:24:47;103377.00;;;9.20
20736;BMP180;10528;52.124;5.196;2024-01-27T08:27:14;103373.00;;;9.30
20736;BMP180;10528;52.124;5.196;2024-01-27T08:29:41;103371.00;;;9.30
20736;BMP180;10528;52.124;5.196;2024-01-27T08:32:08;103369.00;;;9.30
20736;BMP180;10528;52.124;5.196;2024-01-27T08:34:36;103363.00;;;9.40
20736;BMP180;10528;52.124;5.196;2024-01-27T08:37:20;103362.00;;;9.40
20736;BMP180;10528;52.124;5.196;2024-01-27T08:39:47;103376.00;;;9.50
20736;BMP180;10528;52.124;5.196;2024-01-27T08:42:14;103380.00;;;9.60
20736;BMP180;10528;52.124;5.196;2024-01-27T08:44:41;103372.00;;;9.60
20736;BMP180;10528;52.124;5.196;2024-01-27T08:47:08;103378.00;;;9.70
20736;BMP180;10528;52.124;5.196;2024-01-27T08:49:35;103370.00;;;9.70
20736;BMP180;10528;52.124;5.196;2024-01-27T08:52:03;103374.00;;;9.80
20736;BMP180;10528;52.124;5.196;2024-01-27T08:54:30;103384.00;;;9.90
20736;BMP180;10528;52.124;5.196;2024-01-27T08:56:57;103392.00;;;9.90
20736;BMP180;10528;52.124;5.196;2024-01-27T08:59:24;103390.00;;;10.00
20736;BMP180;10528;52.124;5.196;2024-01-27T09:01:51;103385.00;;;10.00
20736;BMP180;10528;52.124;5.196;2024-01-27T09:04:18;103379.00;;;10.10
20736;BMP180;10528;52.124;5.196;2024-01-27T09:06:45;103394.00;;;10.20
20736;BMP180;10528;52.124;5.196;2024-01-27T09:09:12;103387.00;;;10.20
20736;BMP180;10528;52.124;5.196;2024-01-27T09:11:40;103403.00;;;10.30
20736;BMP180;10528;52.124;5.196;2024-01-27T09:14:07;103398.00;;;10.30
20736;BMP180;10528;52.124;5.196;2024-01-27T09:16:34;103402.00;;;10.30
20736;BMP180;10528;52.124;5.196;2024-01-27T09:19:01;103395.00;;;10.40
20736;BMP180;10528;52.124;5.196;2024-01-27T09:21:29;103404.00;;;10.40
20736;BMP180;10528;52.124;5.196;2024-01-27T09:23:58;103402.00;;;10.40
20736;BMP180;10528;52.124;5.196;2024-01-27T09:26:25;103392.00;;;10.40
20736;BMP180;10528;52.124;5.196;2024-01-27T09:28:52;103412.00;;;10.50
20736;BMP180;10528;52.124;5.196;2024-01-27T09:31:23;103421.00;;;10.50
20736;BMP180;10528;52.124;5.196;2024-01-27T09:33:51;103428.00;;;10.60
20736;BMP180;10528;52.124;5.196;2024-01-27T09:36:20;103421.00;;;10.60
20736;BMP180;10528;52.124;5.196;2024-01-27T09:38:47;103430.00;;;10.70
20736;BMP180;10528;52.124;5.196;2024-01-27T09:41:15;103425.00;;;10.70
20736;BMP180;10528;52.124;5.196;2024-01-27T09:43:45;103428.00;;;10.80
20736;BMP180;10528;52.124;5.196;2024-01-27T09:46:14;103431.00;;;10.80
20736;BMP180;10528;52.124;5.196;2024-01-27T09:48:41;103430.00;;;10.90
20736;BMP180;10528;52.124;5.196;2024-01-27T09:51:10;103434.00;;;11.00
20736;BMP180;10528;52.124;5.196;2024-01-27T09:53:37;103444.00;;;11.00
20736;BMP180;10528;52.124;5.196;2024-01-27T09:56:06;103453.00;;;11.10
20736;BMP180;10528;52.124;5.196;2024-01-27T09:58:33;103461.00;;;11.20
20736;BMP180;10528;52.124;5.196;2024-01-27T10:01:01;103458.00;;;11.20
20736;BMP180;10528;52.124;5.196;2024-01-27T10:03:30;103461.00;;;11.30
20736;BMP180;10528;52.124;5.196;2024-01-27T10:05:57;103458.00;;;11.40
20736;BMP180;10528;52.124;5.196;2024-01-27T10:08:25;103456.00;;;11.50
20736;BMP180;10528;52.124;5.196;2024-01-27T10:10:56;103455.00;;;11.60
20736;BMP180;10528;52.124;5.196;2024-01-27T10:13:23;103464.00;;;11.60
20736;BMP180;10528;52.124;5.196;2024-01-27T10:16:07;103451.00;;;11.70
20736;BMP180;10528;52.124;5.196;2024-01-27T10:18:35;103461.00;;;11.80
20736;BMP180;10528;52.124;5.196;2024-01-27T10:21:16;103481.00;;;11.90
20736;BMP180;10528;52.124;5.196;2024-01-27T10:23:43;103466.00;;;12.00
20736;BMP180;10528;52.124;5.196;2024-01-27T10:26:11;103484.00;;;12.10
20736;BMP180;10528;52.124;5.196;2024-01-27T10:28:38;103476.00;;;12.10
20736;BMP180;10528;52.124;5.196;2024-01-27T10:31:12;103478.00;;;12.20
20736;BMP180;10528;52.124;5.196;2024-01-27T10:33:51;103485.00;;;12.30
20736;BMP180;10528;52.124;5.196;2024-01-27T10:36:19;103485.00;;;12.40
20736;BMP180;10528;52.124;5.196;2024-01-27T10:38:46;103480.00;;;12.40
20736;BMP180;10528;52.124;5.196;2024-01-27T10:41:22;103467.00;;;12.50
20736;BMP180;10528;52.124;5.196;2024-01-27T10:43:57;103467.00;;;12.60
20736;BMP180;10528;52.124;5.196;2024-01-27T10:46:27;103454.00;;;12.60
20736;BMP180;10528;52.124;5.196;2024-01-27T10:48:55;103463.00;;;12.70
20736;BMP180;10528;52.124;5.196;2024-01-27T10:51:31;103464.00;;;12.70
20736;BMP180;10528;52.124;5.196;2024-01-27T10:54:02;103467.00;;;12.80
20736;BMP180;10528;52.124;5.196;2024-01-27T10:56:32;103461.00;;;12.80
20736;BMP180;10528;52.124;5.196;2024-01-27T10:59:05;103456.00;;;12.90
20736;BMP180;10528;52.124;5.196;2024-01-27T11:01:38;103467.00;;;12.90
20736;BMP180;10528;52.124;5.196;2024-01-27T11:04:05;103460.00;;;13.00
20736;BMP180;10528;52.124;5.196;2024-01-27T11:06:35;103458.00;;;13.00
20736;BMP180;10528;52.124;5.196;2024-01-27T11:09:02;103453.00;;;13.00
20736;BMP180;10528;52.124;5.196;2024-01-27T11:11:32;103454.00;;;13.10
20736;BMP180;10528;52.124;5.196;2024-01-27T11:13:59;103452.00;;;13.10
20736;BMP180;10528;52.124;5.196;2024-01-27T11:16:27;103446.00;;;13.10
20736;BMP180;10528;52.124;5.196;2024-01-27T11:18:56;103456.00;;;13.20
20736;BMP180;10528;52.124;5.196;2024-01-27T11:21:23;103456.00;;;13.20
20736;BMP180;10528;52.124;5.196;2024-01-27T11:23:50;103461.00;;;13.30
20736;BMP180;10528;52.124;5.196;2024-01-27T11:26:21;103460.00;;;13.30
20736;BMP180;10528;52.124;5.196;2024-01-27T11:28:49;103443.00;;;13.30
20736;BMP180;10528;52.124;5.196;2024-01-27T11:31:18;103443.00;;;13.30
20736;BMP180;10528;52.124;5.196;2024-01-27T11:33:51;103437.00;;;13.40
20736;BMP180;10528;52.124;5.196;2024-01-27T11:36:24;103438.00;;;13.40
20736;BMP180;10528;52.124;5.196;2024-01-27T11:38:53;103432.00;;;13.40
20736;BMP180;10528;52.124;5.196;2024-01-27T11:41:28;103443.00;;;13.40
20736;BMP180;10528;52.124;5.196;2024-01-27T11:43:59;103435.00;;;13.40
20736;BMP180;10528;52.124;5.196;2024-01-27T11:46:26;103433.00;;;13.40
20736;BMP180;10528;52.124;5.196;2024-01-27T11:48:53;103432.00;;;13.40
20736;BMP180;10528;52.124;5.196;2024-01-27T11:51:21;103434.00;;;13.40
20736;BMP180;10528;52.124;5.196;2024-01-27T11:53:50;103430.00;;;13.50
20736;BMP180;10528;52.124;5.196;2024-01-27T11:56:17;103425.00;;;13.50
20736;BMP180;10528;52.124;5.196;2024-01-27T11:58:49;103421.00;;;13.50
20736;BMP180;10528;52.124;5.196;2024-01-27T12:01:16;103423.00;;;13.60
20736;BMP180;10528;52.124;5.196;2024-01-27T12:03:44;103414.00;;;13.60
20736;BMP180;10528;52.124;5.196;2024-01-27T12:06:12;103427.00;;;13.60
20736;BMP180;10528;52.124;5.196;2024-01-27T12:08:44;103428.00;;;13.60
20736;BMP180;10528;52.124;5.196;2024-01-27T12:11:15;103429.00;;;13.60
20736;BMP180;10528;52.124;5.196;2024-01-27T12:13:44;103426.00;;;13.60
20736;BMP180;10528;52.124;5.196;2024-01-27T12:16:11;103414.00;;;13.60
20736;BMP180;10528;52.124;5.196;2024-01-27T12:18:38;103397.00;;;13.60
20736;BMP180;10528;52.124;5.196;2024-01-27T12:21:05;103403.00;;;13.60
20736;BMP180;10528;52.124;5.196;2024-01-27T12:23:32;103392.00;;;13.60
20736;BMP180;10528;52.124;5.196;2024-01-27T12:25:59;103408.00;;;13.60
20736;BMP180;10528;52.124;5.196;2024-01-27T12:28:27;103398.00;;;13.60
20736;BMP180;10528;52.124;5.196;2024-01-27T12:30:54;103408.00;;;13.60
20736;BMP180;10528;52.124;5.196;2024-01-27T12:33:21;103409.00;;;13.60
20736;BMP180;10528;52.124;5.196;2024-01-27T12:35:52;103390.00;;;13.60
20736;BMP180;10528;52.124;5.196;2024-01-27T12:38:22;103409.00;;;13.60
20736;BMP180;10528;52.124;5.196;2024-01-27T12:40:49;103412.00;;;13.60
20736;BMP180;10528;52.124;5.196;2024-01-27T12:43:16;103408.00;;;13.60
20736;BMP180;10528;52.124;5.196;2024-01-27T12:45:42;103409.00;;;13.60
20736;BMP180;10528;52.124;5.196;2024-01-27T12:48:09;103417.00;;;13.60
20736;BMP180;10528;52.124;5.196;2024-01-27T12:50:37;103413.00;;;13.60
20736;BMP180;10528;52.124;5.196;2024-01-27T12:53:11;103414.00;;;13.70
20736;BMP180;10528;52.124;5.196;2024-01-27T12:55:38;103409.00;;;13.70
20736;BMP180;10528;52.124;5.196;2024-01-27T12:58:04;103403.00;;;13.70
20736;BMP180;10528;52.124;5.196;2024-01-27T13:00:31;103399.00;;;13.70
20736;BMP180;10528;52.124;5.196;2024-01-27T13:02:58;103401.00;;;13.70
20736;BMP180;10528;52.124;5.196;2024-01-27T13:05:25;103394.00;;;13.70
20736;BMP180;10528;52.124;5.196;2024-01-27T13:07:52;103395.00;;;13.70
20736;BMP180;10528;52.124;5.196;2024-01-27T13:10:19;103400.00;;;13.70
20736;BMP180;10528;52.124;5.196;2024-01-27T13:12:46;103394.00;;;13.70
20736;BMP180;10528;52.124;5.196;2024-01-27T13:15:13;103386.00;;;13.70
20736;BMP180;10528;52.124;5.196;2024-01-27T13:17:41;103388.00;;;13.70
20736;BMP180;10528;52.124;5.196;2024-01-27T13:20:09;103388.00;;;13.70
20736;BMP180;10528;52.124;5.196;2024-01-27T13:22:36;103391.00;;;13.80
20736;BMP180;10528;52.124;5.196;2024-01-27T13:25:04;103376.00;;;13.80
20736;BMP180;10528;52.124;5.196;2024-01-27T13:27:34;103382.00;;;13.80
20736;BMP180;10528;52.124;5.196;2024-01-27T13:30:02;103365.00;;;13.80
20736;BMP180;10528;52.124;5.196;2024-01-27T13:32:29;103375.00;;;13.70
20736;BMP180;10528;52.124;5.196;2024-01-27T13:34:56;103378.00;;;13.70
20736;BMP180;10528;52.124;5.196;2024-01-27T13:37:23;103380.00;;;13.70
20736;BMP180;10528;52.124;5.196;2024-01-27T13:39:51;103394.00;;;13.70
20736;BMP180;10528;52.124;5.196;2024-01-27T13:42:19;103385.00;;;13.70
20736;BMP180;10528;52.124;5.196;2024-01-27T13:44:46;103373.00;;;13.70
20736;BMP180;10528;52.124;5.196;2024-01-27T13:47:14;103389.00;;;13.80
20736;BMP180;10528;52.124;5.196;2024-01-27T13:49:40;103383.00;;;13.80
20736;BMP180;10528;52.124;5.196;2024-01-27T13:52:08;103387.00;;;13.80
20736;BMP180;10528;52.124;5.196;2024-01-27T13:54:35;103378.00;;;13.80
20736;BMP180;10528;52.124;5.196;2024-01-27T13:57:03;103383.00;;;13.80
20736;BMP180;10528;52.124;5.196;2024-01-27T13:59:31;103379.00;;;13.80
20736;BMP180;10528;52.124;5.196;2024-01-27T14:01:58;103378.00;;;13.80
20736;BMP180;10528;52.124;5.196;2024-01-27T14:04:25;103385.00;;;13.80